Terminal Aerodrome Forecast
Issued by NWS

Home | Current Version | Previous Version | Graphics & Text | Print | Product List | Glossary On
Versions: 1 2 3 4 5 6 7 8 9 10 11 12 13 14
682
FTUS45 KGGW 031133
TAFSDY
TAF
KSDY 031133Z 0312/0412 VRB05KT P6SM BKN130
     FM031500 20009KT P6SM VCSH OVC045
     FM031700 21010KT P6SM VCSH OVC030
     FM032000 23011KT P6SM OVC030
     FM040000 27011KT P6SM BKN040
     FM040800 25007KT P6SM SCT040=

USA.gov is the U.S. government's official web portal to all federal, state and local government web resources and services.